x

Buoy F01 - West Penobscot Bay (44033) Wave Buoy

5:04 - Tue 30th May 2017 All times are EDT. -4 hours from GMT.

  • Sig Wave height 2.0ft
  • Peak Period 6s
  • Wind
    2mph, 4mph gusts
  • Sea Temp 46°f
  • Ar Temp 46°f
  • Sea Pressure 1021.2mb
  • Buoy F01 - West Penobscot Bay
  • Buoy F01 - West Penobscot Bay

More Historic Weather Station data

Upgrade to MSW Pro to gain access to the past 30 days of data for over 8000 Wavebouys and Weather Stations around the globe.

Join Pro

Comparision Forecast

View Surf forecast
   
Ter 05/30 5:04 2ft 6s 2 4 mph 1021.2mb 46f 46f
4:04 1.6ft 5s  -  2 mph 1020.6mb 46f 46f
3:04 1.6ft 6s 4 4 mph 1020.1mb 46f 47f
2:04 1.3ft 6s 2 4 mph 1020.6mb 46f 48f
1:04 1.6ft 6s 4 4 mph 1020.6mb 46f 48f
12:04 2ft 5s 4 4 mph 1020.5mb 47f 48f
Seg 05/29 10:04 2.5ft 5s 4 4 mph 1020.8mb 47f 48f
9:04 2.5ft 5s 7 7 mph 1020.2mb 47f 48f
8:04 2ft 5s 4 4 mph 1020.5mb 47f 48f
7:04 2ft 5s 7 9 mph 1020.2mb 47f 49f
6:04 2.5ft 5s 7 7 mph 1019.9mb 47f 48f
5:04 2ft 5s 9 11 mph 1019.6mb 47f 47f
4:04 2ft 6s 7 9 mph 1019.3mb 47f 47f
3:04 2ft 4s 11 13 mph 1019.2mb 47f 46f
2:04 2.5ft 8s 11 13 mph 1019.4mb 47f 46f
1:04 1.6ft 4s 13 16 mph 1019.5mb 47f 45f
12:04 1.6ft 4s 16 18 mph 1019.5mb 47f 45f
11:04 2ft 4s 18 20 mph 1020.1mb 47f 45f
10:04 2ft 3s 16 18 mph 1019.6mb 47f 45f
8:04 1.6ft 8s 13 16 mph 1019.7mb 48f 46f
7:04 1ft 5s  -  mph - 48f -
6:04 1ft 5s 11 13 mph 1019mb 48f 44f
5:04 1.3ft 6s 9 9 mph 1018.2mb 48f 45f
4:04 1.3ft 6s 9 11 mph 1018mb 48f 46f
3:04 1.6ft 6s 13 13 mph 1017.3mb 48f 46f
2:04 1.3ft 6s 9 9 mph 1017.2mb 48f 47f
1:04 1.3ft 6s 9 9 mph 1016.9mb 49f 47f
Dom 05/28 11:04 1.3ft 6s 7 7 mph 1017.4mb 49f 48f
10:04 1.3ft 8s 7 9 mph 1017.5mb 50f 48f
9:04 1.3ft 8s 7 9 mph 1017.3mb 49f 48f
8:04 1.3ft 8s 11 11 mph 1017.1mb 50f 48f
7:04 1.3ft 8s 11 13 mph 1016.5mb 51f 49f
6:04 0.7ft  -  9 11 mph 1016.2mb 51f 49f
5:04 1.3ft 6s 11 13 mph 1016.6mb 49f 49f
4:04 1ft 3s 11 13 mph 1016.2mb 50f 49f
3:04 1.6ft 8s 13 16 mph 1016mb 51f 49f
2:04 1.6ft 6s 13 16 mph 1015.5mb 50f 49f
1:04 1.6ft 8s 11 11 mph 1015.4mb 51f 49f
12:04 1.6ft 6s 9 11 mph 1015.3mb 53f 49f
11:04 1.6ft 8s 9 11 mph 1015.4mb 52f 49f
10:04 1.6ft 8s 9 9 mph 1016mb 50f 48f
9:04 1.6ft 8s 4 4 mph 1016.4mb 51f 47f
8:04 1.3ft 8s 2 2 mph 1015.6mb 51f 47f
7:04 1.3ft 8s 4 4 mph 1015.1mb 50f 45f
6:04 1.3ft 6s 2 4 mph 1014.2mb 50f 44f
5:04 1.3ft 6s 2 4 mph 1014.3mb 49f 45f
4:04 1.3ft 8s 2 4 mph 1013.8mb 50f 45f
3:04 1.3ft 8s 2 2 mph 1013.5mb 51f 44f
2:04 1.6ft 8s 2 2 mph 1013.3mb 49f 46f
1:04 1.6ft 8s 4 7 mph 1014.1mb 49f 47f
12:04 1.6ft 8s 2 4 mph 1014mb 49f 47f
Sáb 05/27 11:04 1.6ft 8s 7 7 mph 1014mb 49f 48f
10:04 1.6ft 8s 9 11 mph 1013.8mb 49f 47f
9:04 2ft 8s 11 11 mph 1013.5mb 49f 47f
8:04 2ft 8s 11 13 mph 1012.8mb 50f 47f
7:04 1.3ft 3s 13 16 mph 1012.7mb 49f 49f
6:04 1ft 3s 9 13 mph 1012mb 49f 49f
5:04 2ft 8s 9 13 mph 1011.4mb 49f 48f
2:04  -   -  7 7 mph 1010.6mb - 51f
12:04  -   -  11 16 mph 1010.3mb - 51f
11:04 2.5ft 8s 16 18 mph 1009.7mb 49f 50f
10:04 1.3ft 3s 16 18 mph 1009.5mb 50f 50f
9:04 2.5ft 8s 13 16 mph 1009.4mb 50f 49f
8:04 2.5ft 8s 13 13 mph 1009.1mb 50f 50f
7:04  -   -  16 18 mph 1008.4mb - 50f
5:04 2ft 8s  -  mph - 49f -
4:04 2ft 8s  -  mph - 47f -